Time;durP1;ratioP1;P1;durP2;ratioP2;P2;SDS_P1;SDS_P2;PMS_P1;PMS_P2;Temp;Humidity;BMP_temperature;BMP_pressure;BME280_temperature;BME280_humidity;BME280_pressure;Samples;Min_cycle;Max_cycle;Signal;HPM_P1;HPM_P2
2022/01/31 00:00:54;;;;;;;31.77;6.43;;;3.90;99.90;;;;;;5029659;28;20056;-61
2022/01/31 00:03:20;;;;;;;27.27;5.50;;;3.90;99.90;;;;;;5029626;28;20033;-62
2022/01/31 00:05:46;;;;;;;22.88;5.50;;;3.90;99.90;;;;;;5028905;28;20091;-62
2022/01/31 00:08:12;;;;;;;17.07;4.53;;;3.90;99.90;;;;;;5029507;28;20038;-62
2022/01/31 00:10:37;;;;;;;25.90;5.13;;;4.00;99.90;;;;;;5029062;28;20116;-62
2022/01/31 00:15:29;;;;;;;25.50;5.67;;;4.00;99.90;;;;;;5029729;28;20052;-61
2022/01/31 00:17:54;;;;;;;26.30;5.68;;;4.10;99.90;;;;;;5028829;28;20073;-62
2022/01/31 00:20:20;;;;;;;24.37;5.97;;;4.10;99.90;;;;;;5029333;28;20034;-61
2022/01/31 00:22:46;;;;;;;26.70;7.67;;;4.20;99.90;;;;;;5029635;28;20084;-62
2022/01/31 00:25:14;;;;;;;24.98;6.53;;;4.20;99.90;;;;;;5028965;28;20073;-61
2022/01/31 00:27:39;;;;;;;25.98;5.18;;;4.20;99.90;;;;;;5029976;28;20034;-60
2022/01/31 00:30:06;;;;;;;20.57;4.47;;;4.20;99.90;;;;;;5033302;28;20037;-61
2022/01/31 00:32:32;;;;;;;21.80;6.60;;;4.20;99.90;;;;;;5033469;28;20100;-61
2022/01/31 00:34:58;;;;;;;23.37;6.50;;;4.20;99.90;;;;;;5032290;28;20038;-60
2022/01/31 00:37:24;;;;;;;22.92;5.10;;;4.20;99.90;;;;;;5033033;28;20080;-61
2022/01/31 00:39:50;;;;;;;19.70;4.07;;;4.20;99.90;;;;;;5032464;28;20068;-61
2022/01/31 00:42:16;;;;;;;20.95;5.50;;;4.10;99.90;;;;;;5031696;28;20518;-61
2022/01/31 00:44:49;;;;;;;20.73;6.57;;;4.10;99.90;;;;;;5032206;28;20124;-61
2022/01/31 00:47:21;;;;;;;24.98;5.75;;;4.20;99.90;;;;;;5022489;28;20289;-61
2022/01/31 00:50:04;;;;;;;20.83;6.13;;;4.20;99.90;;;;;;5023163;28;20453;-61
2022/01/31 00:52:30;;;;;;;19.70;5.07;;;4.20;99.90;;;;;;5032851;28;20102;-61
2022/01/31 00:54:55;;;;;;;17.40;4.93;;;4.20;99.90;;;;;;5032417;28;20120;-61
2022/01/31 00:57:21;;;;;;;23.13;6.70;;;4.20;99.90;;;;;;5032617;28;20041;-61
2022/01/31 00:59:50;;;;;;;21.13;4.72;;;4.20;99.90;;;;;;5032045;28;20540;-61
2022/01/31 01:02:20;;;;;;;23.35;6.57;;;4.20;99.90;;;;;;5032492;28;20095;-61
2022/01/31 01:04:47;;;;;;;31.08;5.10;;;4.20;99.90;;;;;;5030564;28;20045;-59
2022/01/31 01:07:14;;;;;;;19.63;6.35;;;4.20;99.90;;;;;;5032574;28;20414;-61
2022/01/31 01:09:46;;;;;;;23.13;5.35;;;4.20;99.90;;;;;;5032165;28;20041;-61
2022/01/31 01:12:14;;;;;;;17.25;6.43;;;4.20;99.90;;;;;;5032491;28;20120;-61
2022/01/31 01:14:40;;;;;;;21.45;6.20;;;4.20;99.90;;;;;;5031637;28;20476;-61
2022/01/31 01:17:06;;;;;;;18.38;5.15;;;4.20;99.90;;;;;;5031979;28;20418;-60
2022/01/31 01:19:31;;;;;;;17.63;5.35;;;4.20;99.90;;;;;;5031785;28;20056;-61
2022/01/31 01:21:57;;;;;;;16.53;6.50;;;4.20;99.90;;;;;;5032452;28;20040;-60
2022/01/31 01:24:23;;;;;;;16.00;6.93;;;4.20;99.90;;;;;;5031978;28;20286;-61
2022/01/31 01:26:49;;;;;;;18.27;5.30;;;4.20;99.90;;;;;;5037469;28;20280;-59
2022/01/31 01:29:15;;;;;;;27.73;6.80;;;4.30;99.90;;;;;;5032304;28;20045;-60
2022/01/31 01:31:43;;;;;;;26.13;8.68;;;4.30;99.90;;;;;;5031766;28;20129;-59
2022/01/31 01:34:09;;;;;;;29.70;7.72;;;4.30;99.90;;;;;;5031651;28;20045;-61
2022/01/31 01:36:35;;;;;;;23.33;8.60;;;4.30;99.90;;;;;;5031576;28;20095;-59
2022/01/31 01:39:01;;;;;;;29.65;9.75;;;4.20;99.90;;;;;;5029975;28;20073;-60
2022/01/31 01:41:27;;;;;;;27.42;8.73;;;4.20;99.90;;;;;;5030876;28;20048;-61
2022/01/31 01:43:53;;;;;;;20.45;8.57;;;4.20;99.90;;;;;;5031693;28;20038;-60
2022/01/31 01:46:18;;;;;;;27.73;9.30;;;4.20;99.90;;;;;;5030828;28;20046;-61
2022/01/31 01:48:44;;;;;;;25.40;10.40;;;4.10;99.90;;;;;;5031783;28;20044;-60
2022/01/31 01:51:09;;;;;;;23.73;10.80;;;4.00;99.90;;;;;;5031705;28;20528;-59
2022/01/31 01:53:35;;;;;;;25.97;11.17;;;4.00;99.90;;;;;;5030484;28;20052;-59
2022/01/31 01:56:01;;;;;;;21.65;10.75;;;3.90;99.90;;;;;;5030919;28;20414;-61
2022/01/31 01:58:37;;;;;;;22.27;10.77;;;3.70;99.90;;;;;;5031613;28;20375;-61
2022/01/31 02:01:03;;;;;;;17.25;9.93;;;3.70;99.90;;;;;;5031110;28;20056;-61
2022/01/31 02:03:31;;;;;;;25.13;10.93;;;3.60;99.90;;;;;;5031873;28;20647;-61
2022/01/31 02:05:57;;;;;;;28.00;11.35;;;3.50;99.90;;;;;;5030656;28;20383;-61
2022/01/31 02:08:23;;;;;;;31.10;11.43;;;3.50;99.90;;;;;;5031386;28;20092;-61
2022/01/31 02:10:49;;;;;;;;;;;3.50;99.90;;;;;;5031221;28;20045;-62
2022/01/31 02:13:15;;;;;;;23.50;11.45;;;3.40;99.90;;;;;;5031303;28;19917;-61
2022/01/31 02:15:44;;;;;;;29.55;13.82;;;3.40;99.90;;;;;;5030696;28;20132;-62
2022/01/31 02:18:10;;;;;;;26.65;12.32;;;3.40;99.90;;;;;;5030791;28;20056;-62
2022/01/31 02:20:41;;;;;;;20.85;12.55;;;3.40;99.90;;;;;;5031269;28;20120;-61
2022/01/31 02:23:08;;;;;;;26.73;12.82;;;3.40;99.90;;;;;;5030615;28;20091;-61
2022/01/31 02:25:50;;;;;;;31.33;12.65;;;3.40;99.90;;;;;;5030753;28;20145;-61
2022/01/31 02:28:16;;;;;;;22.00;11.95;;;3.40;99.90;;;;;;5024134;28;20068;-61
2022/01/31 02:30:42;;;;;;;23.63;13.60;;;3.40;99.90;;;;;;5030908;28;20041;-62
2022/01/31 02:33:08;;;;;;;28.63;15.73;;;3.40;99.90;;;;;;5030371;28;20060;-62
2022/01/31 02:35:35;;;;;;;26.67;11.60;;;3.40;99.90;;;;;;5030664;28;20052;-61
2022/01/31 02:38:00;;;;;;;23.77;12.02;;;3.40;99.90;;;;;;5030369;28;20065;-61
2022/01/31 02:40:26;;;;;;;30.70;12.33;;;3.40;99.90;;;;;;5030309;28;20061;-60
2022/01/31 02:42:52;;;;;;;25.13;11.27;;;3.40;99.90;;;;;;5030302;28;20295;-61
2022/01/31 02:45:18;;;;;;;20.67;11.47;;;3.50;99.90;;;;;;5030688;28;20048;-61
2022/01/31 02:47:50;;;;;;;17.47;11.67;;;3.50;99.90;;;;;;5030284;28;20045;-61
2022/01/31 02:50:16;;;;;;;21.05;12.02;;;3.50;99.90;;;;;;5030734;28;20281;-62
2022/01/31 02:52:47;;;;;;;17.73;11.23;;;3.50;99.90;;;;;;5030505;28;20427;-61
2022/01/31 02:55:13;;;;;;;17.40;10.60;;;3.50;99.90;;;;;;5029922;28;20140;-62
2022/01/31 02:57:39;;;;;;;14.73;9.98;;;3.50;99.90;;;;;;5030354;28;20041;-62
2022/01/31 03:00:06;;;;;;;18.00;10.50;;;3.50;99.90;;;;;;5029856;28;20033;-62
2022/01/31 03:02:32;;;;;;;17.25;10.15;;;3.50;99.90;;;;;;5030533;28;20112;-62
2022/01/31 03:04:57;;;;;;;11.00;8.63;;;3.50;99.90;;;;;;5030279;28;20508;-61
2022/01/31 03:07:23;;;;;;;9.97;8.90;;;3.40;99.90;;;;;;5029016;28;20048;-61
2022/01/31 03:09:48;;;;;;;13.60;8.90;;;3.40;99.90;;;;;;5029415;28;20045;-62
2022/01/31 03:12:14;;;;;;;10.03;8.17;;;3.40;99.90;;;;;;5030215;28;20033;-62
2022/01/31 03:14:42;;;;;;;11.35;8.35;;;3.30;99.90;;;;;;5029996;28;20091;-62
2022/01/31 03:17:08;;;;;;;12.02;9.70;;;3.30;99.90;;;;;;5029758;28;20041;-62
2022/01/31 03:19:38;;;;;;;12.43;7.95;;;3.30;99.90;;;;;;5029964;28;20037;-62
2022/01/31 03:22:05;;;;;;;15.02;9.23;;;3.30;99.90;;;;;;5029609;28;20044;-62
2022/01/31 03:24:31;;;;;;;10.85;8.95;;;3.30;99.90;;;;;;5028610;28;20514;-61
2022/01/31 03:26:57;;;;;;;16.40;9.32;;;3.30;99.90;;;;;;5030171;28;20087;-61
2022/01/31 03:29:22;;;;;;;16.03;9.60;;;3.30;99.90;;;;;;5029856;28;20099;-60
2022/01/31 03:31:48;;;;;;;17.37;10.23;;;3.30;99.90;;;;;;5029771;28;20371;-59
2022/01/31 03:34:13;;;;;;;13.67;8.80;;;3.30;99.90;;;;;;5030605;28;20037;-61
2022/01/31 03:36:39;;;;;;;13.53;9.13;;;3.20;99.90;;;;;;5029466;28;20080;-61
2022/01/31 03:39:05;;;;;;;13.27;10.70;;;3.30;99.90;;;;;;5030116;28;20053;-61
2022/01/31 03:41:31;;;;;;;14.80;9.80;;;3.30;99.90;;;;;;5030000;28;20029;-60
2022/01/31 03:43:56;;;;;;;9.67;8.63;;;3.40;99.90;;;;;;5029870;28;20315;-61
2022/01/31 03:46:23;;;;;;;13.37;10.43;;;3.40;99.90;;;;;;5029363;28;20047;-61
2022/01/31 03:48:49;;;;;;;;;;;3.50;99.90;;;;;;5030051;28;20038;-60
2022/01/31 03:51:15;;;;;;;13.10;9.52;;;3.60;99.90;;;;;;5029300;28;20325;-61
2022/01/31 03:53:40;;;;;;;15.00;9.90;;;3.60;99.90;;;;;;5029815;28;20050;-61
2022/01/31 03:56:06;;;;;;;18.03;10.10;;;3.60;99.90;;;;;;5029261;28;20037;-60
2022/01/31 03:58:32;;;;;;;13.60;9.70;;;3.60;99.90;;;;;;5029783;28;20052;-61
2022/01/31 04:00:57;;;;;;;14.18;10.30;;;3.70;99.90;;;;;;5029203;28;20476;-60
2022/01/31 04:03:23;;;;;;;20.40;10.53;;;3.70;99.90;;;;;;5030993;28;20123;-61
2022/01/31 04:05:49;;;;;;;21.07;10.70;;;3.80;99.90;;;;;;5032516;28;20042;-61
2022/01/31 04:08:14;;;;;;;16.90;10.70;;;3.80;99.90;;;;;;5033064;28;20044;-61
2022/01/31 04:10:40;;;;;;;16.27;10.73;;;3.90;99.90;;;;;;5033100;28;20116;-59
2022/01/31 04:13:06;;;;;;;18.88;11.05;;;4.00;99.90;;;;;;5031812;28;20045;-61
2022/01/31 04:15:36;;;;;;;17.38;10.57;;;4.00;99.90;;;;;;5032764;28;20163;-60
2022/01/31 04:18:02;;;;;;;27.98;10.23;;;4.00;99.90;;;;;;5033346;28;20160;-61
2022/01/31 04:20:28;;;;;;;17.38;8.75;;;4.10;99.90;;;;;;5032594;28;20048;-61
2022/01/31 04:23:05;;;;;;;16.40;7.97;;;4.20;99.90;;;;;;5033293;28;20045;-60
2022/01/31 04:28:31;;;;;;;20.50;7.75;;;4.30;99.90;;;;;;5033456;28;20084;-60
2022/01/31 04:31:09;;;;;;;26.42;6.13;;;4.40;99.90;;;;;;5036669;28;20059;-59
2022/01/31 04:33:34;;;;;;;15.73;3.95;;;4.50;99.90;;;;;;5038668;28;20049;-57
2022/01/31 04:36:00;;;;;;;19.63;3.47;;;4.60;99.90;;;;;;5032785;28;20048;-59
2022/01/31 04:38:26;;;;;;;17.77;3.47;;;4.70;99.90;;;;;;5033017;28;20037;-61
2022/01/31 04:40:51;;;;;;;22.75;4.57;;;4.70;99.90;;;;;;5032776;28;20037;-61
2022/01/31 04:43:17;;;;;;;15.97;2.97;;;4.80;99.90;;;;;;5032497;28;20467;-60
2022/01/31 04:45:47;;;;;;;16.53;2.20;;;4.90;99.90;;;;;;5032485;28;20444;-61
2022/01/31 04:48:15;;;;;;;18.63;4.47;;;5.10;99.90;;;;;;5032813;28;20049;-58
2022/01/31 04:50:41;;;;;;;19.95;3.10;;;5.10;99.90;;;;;;5032872;28;20056;-59
2022/01/31 04:53:07;;;;;;;;;;;5.20;99.90;;;;;;5033085;28;20042;-58
2022/01/31 04:55:33;;;;;;;21.63;2.97;;;5.30;99.90;;;;;;5033279;28;19924;-59
2022/01/31 04:57:58;;;;;;;24.05;2.90;;;5.40;99.90;;;;;;5032284;28;20037;-61
2022/01/31 05:00:25;;;;;;;16.23;2.30;;;5.40;99.90;;;;;;5012988;28;20534;-61
2022/01/31 05:02:50;;;;;;;;;;;5.50;99.90;;;;;;5013515;28;20084;-60
2022/01/31 05:05:16;;;;;;;21.92;2.30;;;5.50;99.90;;;;;;5031067;28;19967;-60
2022/01/31 05:07:41;;;;;;;17.33;2.73;;;5.50;99.90;;;;;;5032773;28;20047;-57
2022/01/31 05:10:07;;;;;;;22.70;2.87;;;5.50;99.90;;;;;;5031985;28;20060;-60
2022/01/31 05:12:33;;;;;;;22.23;2.05;;;5.50;99.90;;;;;;5031621;28;20060;-61
2022/01/31 05:14:58;;;;;;;27.67;2.97;;;5.50;99.90;;;;;;5013296;28;20096;-61
2022/01/31 05:17:24;;;;;;;16.67;3.03;;;5.50;99.90;;;;;;5025980;28;20033;-60
2022/01/31 05:19:49;;;;;;;17.97;3.23;;;5.50;99.90;;;;;;5031760;28;20455;-61
2022/01/31 05:22:15;;;;;;;23.03;5.27;;;5.50;99.90;;;;;;5032292;28;20502;-62
2022/01/31 05:24:41;;;;;;;22.33;2.70;;;5.50;99.90;;;;;;5031564;28;20430;-61
2022/01/31 05:27:06;;;;;;;10.73;1.90;;;5.50;99.90;;;;;;5031945;28;20409;-61
2022/01/31 05:29:32;;;;;;;18.90;1.57;;;5.50;99.90;;;;;;5031923;28;20046;-60
2022/01/31 05:31:57;;;;;;;16.90;3.17;;;5.50;99.90;;;;;;5032346;28;20091;-60
2022/01/31 05:34:24;;;;;;;22.43;2.97;;;5.40;99.90;;;;;;5031856;28;20824;-61
2022/01/31 05:36:54;;;;;;;;;;;5.40;99.90;;;;;;5031915;28;20056;-61
2022/01/31 05:39:21;;;;;;;20.63;2.80;;;5.30;99.90;;;;;;5031920;28;19921;-61
2022/01/31 05:41:46;;;;;;;21.92;2.92;;;5.30;99.90;;;;;;5031077;28;20092;-60
2022/01/31 05:44:12;;;;;;;16.87;2.30;;;5.20;99.90;;;;;;5031786;28;20037;-61
2022/01/31 05:46:37;;;;;;;19.43;2.87;;;5.20;99.90;;;;;;5031578;28;20041;-60
2022/01/31 05:49:03;;;;;;;20.60;2.40;;;5.20;99.90;;;;;;5031627;28;20033;-61
2022/01/31 05:51:29;;;;;;;21.80;3.63;;;5.20;99.90;;;;;;5031595;28;20049;-61
2022/01/31 05:53:54;;;;;;;14.20;1.40;;;5.20;99.90;;;;;;5031452;28;20542;-61
2022/01/31 05:56:20;;;;;;;12.07;1.67;;;5.10;99.90;;;;;;5030967;28;20056;-61
2022/01/31 05:58:46;;;;;;;6.30;0.83;;;5.00;99.90;;;;;;5031185;28;20046;-61
2022/01/31 06:01:11;;;;;;;4.25;0.40;;;4.90;99.90;;;;;;5031687;28;20703;-61
2022/01/31 06:03:40;;;;;;;5.83;0.47;;;4.80;99.90;;;;;;5031192;28;20496;-61
2022/01/31 06:06:05;;;;;;;7.70;0.60;;;4.80;99.90;;;;;;5030981;28;20098;-62
2022/01/31 06:08:31;;;;;;;2.97;0.30;;;4.70;99.90;;;;;;5031243;28;20042;-61
2022/01/31 06:10:57;;;;;;;4.67;0.50;;;4.70;99.90;;;;;;5031092;28;20402;-61
2022/01/31 06:13:25;;;;;;;2.55;0.30;;;4.70;99.90;;;;;;5031182;28;20038;-61
2022/01/31 06:15:51;;;;;;;7.82;0.60;;;4.70;99.90;;;;;;5030944;28;20114;-61
2022/01/31 06:18:18;;;;;;;7.30;0.40;;;4.70;99.90;;;;;;5030922;28;20403;-61
2022/01/31 06:20:44;;;;;;;;;;;4.70;99.90;;;;;;5030559;28;21315;-61
2022/01/31 06:23:10;;;;;;;8.65;0.80;;;4.60;99.90;;;;;;5031124;28;19944;-61
2022/01/31 06:25:36;;;;;;;11.43;0.93;;;4.60;99.90;;;;;;5029577;28;20163;-61
2022/01/31 06:28:04;;;;;;;10.70;0.75;;;4.60;99.90;;;;;;5031414;28;20064;-60
2022/01/31 06:30:30;;;;;;;8.10;1.10;;;4.60;99.90;;;;;;5029863;28;20043;-61
2022/01/31 06:32:55;;;;;;;13.17;0.90;;;4.60;99.90;;;;;;5026019;28;20488;-61
2022/01/31 06:35:21;;;;;;;8.13;1.90;;;4.70;99.90;;;;;;5014996;28;20280;-61
2022/01/31 06:37:47;;;;;;;5.20;0.53;;;4.60;99.90;;;;;;5030810;28;20455;-61
2022/01/31 06:40:13;;;;;;;7.47;0.83;;;4.70;99.90;;;;;;5030108;28;20037;-61
2022/01/31 06:42:38;;;;;;;11.65;1.02;;;4.70;99.90;;;;;;5030249;28;20033;-60
2022/01/31 06:45:05;;;;;;;8.77;2.07;;;4.70;99.90;;;;;;5029779;28;20041;-60
2022/01/31 06:47:31;;;;;;;;;;;4.70;99.90;;;;;;5029554;28;20041;-61
2022/01/31 06:49:57;;;;;;;14.45;0.75;;;4.70;99.90;;;;;;5028777;28;20374;-58
2022/01/31 06:52:24;;;;;;;7.35;0.85;;;4.70;99.90;;;;;;5029023;28;20041;-60
2022/01/31 06:54:51;;;;;;;16.38;1.02;;;4.70;99.90;;;;;;5030348;28;20073;-61
2022/01/31 06:57:23;;;;;;;13.93;1.17;;;4.70;99.90;;;;;;5028812;28;20517;-61
2022/01/31 06:59:48;;;;;;;15.95;1.55;;;4.70;99.90;;;;;;5030129;28;20152;-61
2022/01/31 07:02:14;;;;;;;11.33;1.37;;;4.70;99.90;;;;;;5030573;28;20149;-61
2022/01/31 07:04:40;;;;;;;14.60;2.10;;;4.80;99.90;;;;;;5028589;28;20541;-61
2022/01/31 07:07:05;;;;;;;19.03;2.40;;;4.80;99.90;;;;;;5029695;28;20033;-59
2022/01/31 07:09:33;;;;;;;15.05;1.98;;;4.80;99.90;;;;;;5029869;28;20056;-60
2022/01/31 07:12:00;;;;;;;13.75;2.53;;;4.80;99.90;;;;;;5030097;28;20585;-61
2022/01/31 07:14:30;;;;;;;16.42;2.42;;;4.90;99.90;;;;;;5030274;28;20068;-58
2022/01/31 07:16:57;;;;;;;14.02;2.30;;;4.90;99.90;;;;;;5029725;28;20041;-58
2022/01/31 07:19:26;;;;;;;16.92;2.17;;;4.90;99.90;;;;;;5029587;28;20062;-60
2022/01/31 07:21:52;;;;;;;9.65;1.73;;;4.90;99.90;;;;;;5032209;28;20043;-62
2022/01/31 07:26:45;;;;;;;9.47;0.90;;;5.00;99.90;;;;;;5028632;28;20042;-58
2022/01/31 07:29:11;;;;;;;7.35;0.63;;;5.00;99.90;;;;;;5029209;28;20514;-64
2022/01/31 07:31:36;;;;;;;3.50;0.70;;;5.00;99.90;;;;;;5029505;28;20038;-63
2022/01/31 07:34:02;;;;;;;6.30;0.82;;;5.00;99.90;;;;;;5034650;28;20316;-64
2022/01/31 07:36:29;;;;;;;6.70;0.55;;;4.90;99.90;;;;;;5032056;28;20047;-63
2022/01/31 07:38:55;;;;;;;6.00;0.98;;;4.90;99.90;;;;;;5033289;28;20045;-65
2022/01/31 07:41:20;;;;;;;7.50;0.57;;;4.90;99.90;;;;;;5032430;28;20565;-63
2022/01/31 07:43:46;;;;;;;13.77;1.77;;;4.90;99.90;;;;;;5032211;28;20450;-62
2022/01/31 07:46:13;;;;;;;11.63;1.33;;;4.90;99.90;;;;;;5032436;28;20025;-63
2022/01/31 07:48:39;;;;;;;6.93;0.50;;;4.90;99.90;;;;;;5033448;28;20041;-65
2022/01/31 07:51:05;;;;;;;9.37;0.50;;;4.80;99.90;;;;;;5029572;28;20329;-63
2022/01/31 07:53:30;;;;;;;3.80;0.73;;;4.80;99.90;;;;;;5032819;28;20029;-62
2022/01/31 07:55:56;;;;;;;6.20;0.50;;;4.80;99.90;;;;;;5028850;28;20458;-62
2022/01/31 07:58:21;;;;;;;7.70;0.40;;;4.80;99.90;;;;;;5024681;28;20088;-63
2022/01/31 08:00:47;;;;;;;13.03;1.13;;;4.80;99.90;;;;;;5033681;28;20044;-62
2022/01/31 08:03:14;;;;;;;7.07;0.80;;;4.80;99.90;;;;;;5033473;28;20120;-63
2022/01/31 08:05:39;;;;;;;7.20;0.60;;;4.80;99.90;;;;;;5032765;28;20033;-65
2022/01/31 08:08:05;;;;;;;11.87;1.83;;;4.90;99.90;;;;;;5032514;28;20084;-63
2022/01/31 08:10:34;;;;;;;12.17;0.73;;;4.90;99.90;;;;;;5032330;28;20284;-63
2022/01/31 08:13:01;;;;;;;6.53;0.70;;;4.90;99.90;;;;;;5032960;28;20049;-66
2022/01/31 08:15:28;;;;;;;;;;;4.90;99.90;;;;;;5032798;28;20080;-64
2022/01/31 08:17:54;;;;;;;8.82;0.70;;;4.90;99.90;;;;;;5032132;28;19928;-65
2022/01/31 08:20:19;;;;;;;5.33;0.80;;;4.90;99.90;;;;;;5033271;28;20048;-63
2022/01/31 08:22:45;;;;;;;10.13;0.77;;;5.00;99.90;;;;;;5032929;28;20403;-65
2022/01/31 08:25:14;;;;;;;10.57;0.70;;;5.00;99.90;;;;;;5032797;28;20044;-64
2022/01/31 08:27:47;;;;;;;14.25;1.48;;;5.00;99.90;;;;;;5031394;28;20044;-63
2022/01/31 08:30:18;;;;;;;12.55;1.90;;;5.10;99.90;;;;;;5031604;28;20121;-66
2022/01/31 08:32:46;;;;;;;7.75;0.77;;;5.10;99.90;;;;;;5032568;28;20042;-64
2022/01/31 08:37:57;;;;;;;9.27;0.98;;;5.10;99.90;;;;;;5031969;28;20037;-65
2022/01/31 08:40:22;;;;;;;8.20;1.23;;;5.20;99.90;;;;;;5025186;28;20486;-67
2022/01/31 08:42:48;;;;;;;10.00;0.80;;;5.30;99.90;;;;;;5036009;28;20037;-65
2022/01/31 08:45:14;;;;;;;9.43;1.00;;;5.30;99.90;;;;;;5041039;28;20025;-64
2022/01/31 08:47:41;;;;;;;9.57;2.10;;;5.40;99.90;;;;;;5030177;28;20474;-64
2022/01/31 08:50:08;;;;;;;10.23;0.80;;;5.40;99.90;;;;;;5030914;28;20085;-66
2022/01/31 08:52:34;;;;;;;6.95;1.88;;;5.50;99.90;;;;;;5034483;28;20041;-65
2022/01/31 08:55:00;;;;;;;12.13;0.80;;;5.60;99.90;;;;;;5039482;28;20540;-65
2022/01/31 08:57:25;;;;;;;13.53;1.57;;;5.60;99.90;;;;;;5035015;28;20120;-67
2022/01/31 08:59:52;;;;;;;11.17;2.83;;;5.70;99.90;;;;;;5039031;28;20376;-67
2022/01/31 09:02:19;;;;;;;;;;;5.70;99.90;;;;;;5033166;28;20056;-65
2022/01/31 09:04:47;;;;;;;14.63;2.33;;;5.70;99.90;;;;;;5040602;28;19925;-67
2022/01/31 09:07:15;;;;;;;15.18;2.38;;;5.80;99.90;;;;;;5041458;28;20037;-68
2022/01/31 09:09:42;;;;;;;12.38;1.20;;;5.80;99.90;;;;;;5044614;28;20043;-65
2022/01/31 09:12:09;;;;;;;;;;;5.90;99.90;;;;;;5040962;28;20120;-66
2022/01/31 09:14:35;;;;;;;13.50;1.97;;;5.90;99.90;;;;;;5041374;28;20365;-67
2022/01/31 09:17:01;;;;;;;13.98;1.40;;;5.90;99.90;;;;;;5038603;28;20312;-67
2022/01/31 09:19:27;;;;;;;20.15;1.63;;;5.90;99.90;;;;;;5040969;28;20041;-65
2022/01/31 09:21:53;;;;;;;12.37;1.50;;;6.00;99.90;;;;;;5039914;28;20041;-64
2022/01/31 09:24:19;;;;;;;11.45;1.20;;;6.00;99.90;;;;;;5044952;28;20029;-65
2022/01/31 09:26:44;;;;;;;11.57;1.70;;;6.00;99.90;;;;;;5040769;28;20033;-65
2022/01/31 09:29:11;;;;;;;11.97;1.67;;;6.00;99.90;;;;;;5042799;28;20089;-68
2022/01/31 09:31:37;;;;;;;9.30;1.13;;;6.10;99.90;;;;;;5034425;28;20556;-64
2022/01/31 09:34:04;;;;;;;9.60;1.40;;;6.20;99.90;;;;;;5042072;28;20131;-65
2022/01/31 09:36:30;;;;;;;5.45;0.77;;;6.20;99.90;;;;;;5039853;28;20076;-64
2022/01/31 09:38:55;;;;;;;13.87;1.17;;;6.20;99.90;;;;;;5043886;28;20064;-68
2022/01/31 09:41:24;;;;;;;8.63;1.63;;;6.30;99.90;;;;;;5038426;28;20044;-67
2022/01/31 09:48:44;;;;;;;7.75;0.75;;;6.50;99.90;;;;;;5040007;28;20894;-65
2022/01/31 09:51:09;;;;;;;8.57;0.80;;;6.60;99.90;;;;;;5042695;28;20045;-67
2022/01/31 09:53:45;;;;;;;4.03;0.63;;;6.60;99.90;;;;;;5041320;28;20091;-64
2022/01/31 09:56:13;;;;;;;9.32;0.93;;;6.70;99.90;;;;;;5034399;28;20039;-66
2022/01/31 09:58:40;;;;;;;7.57;0.68;;;6.70;99.90;;;;;;5042731;28;20076;-65
2022/01/31 10:01:05;;;;;;;9.98;2.05;;;7.00;99.90;;;;;;5037684;28;20444;-63
2022/01/31 10:03:31;;;;;;;8.10;0.60;;;7.20;99.90;;;;;;5038983;28;20050;-63
2022/01/31 10:05:58;;;;;;;2.42;0.40;;;7.40;99.90;;;;;;5041611;28;20617;-67
2022/01/31 10:08:30;;;;;;;7.97;1.20;;;7.50;99.90;;;;;;5041165;28;20406;-66
2022/01/31 10:11:00;;;;;;;9.52;0.40;;;7.80;99.90;;;;;;5040096;28;20047;-63
2022/01/31 10:16:30;;;;;;;9.95;1.27;;;8.20;99.90;;;;;;5040406;28;20072;-65
2022/01/31 10:19:05;;;;;;;6.85;0.60;;;8.30;99.90;;;;;;5036032;28;20056;-64
2022/01/31 10:21:31;;;;;;;3.65;0.40;;;8.30;99.90;;;;;;5040381;28;20108;-67
2022/01/31 10:23:56;;;;;;;7.47;0.60;;;8.30;99.90;;;;;;5039559;28;20182;-63
2022/01/31 10:26:33;;;;;;;4.27;0.40;;;8.40;99.90;;;;;;5050556;28;20287;-64
2022/01/31 10:29:16;;;;;;;7.83;0.90;;;8.70;99.90;;;;;;5040299;28;20418;-66
2022/01/31 10:32:06;;;;;;;9.18;2.08;;;9.00;99.90;;;;;;5040209;28;20788;-65
2022/01/31 10:34:39;;;;;;;7.32;0.75;;;9.20;99.90;;;;;;5036982;28;20067;-64
2022/01/31 10:37:09;;;;;;;7.43;0.75;;;9.10;99.90;;;;;;5037539;28;20065;-63
2022/01/31 10:53:49;;;;;;;5.85;0.60;;;8.10;99.90;;;;;;5041824;28;20041;-63
2022/01/31 10:56:15;;;;;;;8.48;0.52;;;8.10;99.90;;;;;;5038673;28;20029;-63
2022/01/31 10:59:02;;;;;;;5.72;0.65;;;8.00;99.90;;;;;;5034368;28;20037;-63
2022/01/31 11:01:28;;;;;;;9.02;0.40;;;7.90;99.90;;;;;;5034926;28;20068;-62
2022/01/31 11:03:56;;;;;;;5.00;0.65;;;8.00;99.90;;;;;;5038330;28;20032;-62
2022/01/31 11:06:23;;;;;;;3.65;0.57;;;8.10;99.90;;;;;;5035887;28;20136;-65
2022/01/31 11:08:50;;;;;;;9.35;0.80;;;8.10;99.90;;;;;;5043659;28;20466;-65
2022/01/31 11:11:17;;;;;;;5.03;0.30;;;8.10;99.90;;;;;;5042483;28;20538;-62
2022/01/31 11:13:43;;;;;;;15.90;0.82;;;8.30;99.90;;;;;;5038864;28;20029;-63
2022/01/31 11:16:09;;;;;;;1.60;0.43;;;8.70;99.90;;;;;;5040181;28;20084;-64
2022/01/31 11:18:36;;;;;;;7.47;0.30;;;9.10;99.90;;;;;;5040728;28;20033;-61
2022/01/31 11:21:08;;;;;;;8.35;0.30;;;9.40;99.90;;;;;;5034755;28;20527;-61
2022/01/31 11:23:40;;;;;;;7.15;0.77;;;9.50;99.90;;;;;;5033780;28;20039;-64
2022/01/31 11:26:07;;;;;;;5.10;0.77;;;9.60;99.90;;;;;;5038306;28;20033;-63
2022/01/31 11:28:36;;;;;;;2.33;0.30;;;9.60;99.90;;;;;;5034735;28;20132;-66
2022/01/31 11:31:03;;;;;;;9.20;1.73;;;9.80;99.90;;;;;;5035734;28;20041;-64
2022/01/31 11:33:29;;;;;;;9.23;1.05;;;9.90;99.90;;;;;;5040379;28;20082;-65
2022/01/31 11:35:55;;;;;;;8.30;1.35;;;10.10;99.90;;;;;;5038458;28;20133;-65
2022/01/31 11:38:21;;;;;;;12.63;1.92;;;10.20;99.90;;;;;;5040565;28;20037;-67
2022/01/31 11:40:48;;;;;;;12.32;1.50;;;10.50;99.90;;;;;;5038942;28;20083;-64
2022/01/31 11:43:16;;;;;;;9.25;0.70;;;10.60;99.90;;;;;;5037720;28;20033;-65
2022/01/31 11:45:44;;;;;;;13.55;1.67;;;10.70;99.90;;;;;;5038314;28;20086;-64
2022/01/31 11:48:11;;;;;;;6.00;0.75;;;10.80;99.90;;;;;;5040742;28;20148;-65
2022/01/31 11:50:50;;;;;;;15.90;1.88;;;10.90;99.90;;;;;;5036942;28;20362;-63
2022/01/31 11:53:29;;;;;;;9.20;0.77;;;11.10;99.90;;;;;;5039423;28;20033;-66
2022/01/31 11:56:06;;;;;;;5.88;0.60;;;11.20;99.90;;;;;;5041176;28;20590;-64
2022/01/31 11:58:34;;;;;;;;;;;11.30;99.90;;;;;;5037870;28;20462;-66
2022/01/31 12:01:02;;;;;;;4.90;0.40;;;11.30;99.90;;;;;;5030133;28;20118;-63
2022/01/31 12:03:28;;;;;;;11.40;1.08;;;11.30;99.90;;;;;;5042184;28;20299;-63
2022/01/31 12:05:54;;;;;;;8.45;1.33;;;11.30;99.90;;;;;;5040165;28;20511;-65
2022/01/31 12:08:32;;;;;;;11.13;1.83;;;11.20;99.90;;;;;;5029479;28;20069;-66
2022/01/31 12:11:46;;;;;;;16.65;1.02;;;11.10;99.90;;;;;;5033548;28;20091;-67
2022/01/31 12:13:51;;;;;;;12.68;1.10;;;10.90;99.90;;;;;;5038007;28;20456;-66
2022/01/31 12:16:45;;;;;;;10.45;1.33;;;10.60;99.90;;;;;;5041154;28;20052;-65
2022/01/31 12:22:44;;;;;;;14.45;1.63;;;10.20;99.90;;;;;;5036871;28;20550;-64
2022/01/31 12:25:31;;;;;;;12.25;1.67;;;10.00;99.90;;;;;;5042953;28;20041;-65
2022/01/31 12:28:17;;;;;;;12.35;0.85;;;9.90;99.90;;;;;;5045340;28;20041;-65
2022/01/31 12:30:43;;;;;;;7.82;1.60;;;9.80;99.90;;;;;;5037553;28;20550;-64
2022/01/31 12:33:41;;;;;;;11.33;1.27;;;9.70;99.90;;;;;;5044846;28;20471;-65
2022/01/31 12:36:07;;;;;;;12.65;0.75;;;9.60;99.90;;;;;;5045206;28;20041;-63
2022/01/31 12:38:33;;;;;;;11.00;1.03;;;9.60;99.90;;;;;;5046230;28;20087;-65
2022/01/31 12:41:05;;;;;;;8.55;1.58;;;9.60;99.90;;;;;;5039268;28;20052;-64
2022/01/31 12:46:08;;;;;;;12.13;0.95;;;9.70;99.90;;;;;;5040612;28;20477;-65
2022/01/31 12:48:35;;;;;;;12.07;1.00;;;9.70;99.90;;;;;;5044407;28;20072;-63
2022/01/31 12:51:04;;;;;;;9.63;1.33;;;9.70;99.90;;;;;;5041342;28;20067;-63
2022/01/31 12:53:41;;;;;;;10.98;0.98;;;9.60;99.90;;;;;;5042083;28;20104;-65
2022/01/31 12:56:24;;;;;;;6.43;1.25;;;9.60;99.90;;;;;;5041840;28;20114;-64
2022/01/31 12:59:01;;;;;;;12.60;2.03;;;9.40;99.90;;;;;;5043661;28;20469;-65
2022/01/31 13:01:39;;;;;;;10.20;1.38;;;9.40;99.90;;;;;;5041105;28;20053;-64
2022/01/31 13:04:09;;;;;;;13.88;0.98;;;9.20;99.90;;;;;;5045094;28;20319;-62
2022/01/31 13:06:54;;;;;;;13.90;2.75;;;9.00;99.90;;;;;;5040151;28;20060;-62
2022/01/31 13:09:26;;;;;;;13.70;1.35;;;8.90;99.90;;;;;;5044000;28;20110;-64
2022/01/31 13:11:54;;;;;;;7.00;0.93;;;8.80;99.90;;;;;;5042339;28;20037;-62
2022/01/31 13:14:29;;;;;;;12.02;1.40;;;8.80;99.90;;;;;;5047006;28;20090;-62
2022/01/31 13:17:09;;;;;;;7.35;0.93;;;8.70;99.90;;;;;;5043494;28;20572;-62
2022/01/31 13:19:40;;;;;;;8.13;0.60;;;8.60;99.90;;;;;;5044696;28;20044;-63
2022/01/31 13:22:11;;;;;;;10.52;1.95;;;8.60;99.90;;;;;;5050633;28;20544;-62
2022/01/31 13:24:40;;;;;;;13.25;1.80;;;8.60;99.90;;;;;;5029292;28;20044;-63
2022/01/31 13:27:09;;;;;;;4.70;0.43;;;8.60;99.90;;;;;;5041310;28;20037;-62
2022/01/31 13:29:42;;;;;;;8.27;0.73;;;8.60;99.90;;;;;;5043917;28;20091;-63
2022/01/31 13:32:17;;;;;;;8.63;0.82;;;8.60;99.90;;;;;;5041221;28;20037;-64